Time;durP1;ratioP1;P1;durP2;ratioP2;P2;SDS_P1;SDS_P2;PMS_P1;PMS_P2;Temp;Humidity;BMP_temperature;BMP_pressure;BME280_temperature;BME280_humidity;BME280_pressure;Samples;Min_cycle;Max_cycle;Signal;HPM_P1;HPM_P2
2022/07/29 00:01:31;;;;;;;7.43;4.97;;;20.60;99.90;;;20.06;75.58;97167.53;5027807;28;20413;-74
2022/07/29 00:03:57;;;;;;;7.63;4.85;;;20.70;99.90;;;20.09;75.50;97164.19;5011534;28;20413;-74
2022/07/29 00:06:23;;;;;;;6.13;4.80;;;20.70;99.90;;;20.13;75.19;97158.97;5011961;28;20414;-73
2022/07/29 00:08:49;;;;;;;6.65;4.90;;;20.80;99.90;;;20.12;75.39;97158.19;5011927;28;20407;-74
2022/07/29 00:11:15;;;;;;;9.25;4.72;;;20.80;99.90;;;20.07;75.50;97153.00;5011824;28;20817;-73
2022/07/29 00:13:42;;;;;;;7.00;4.60;;;20.70;99.90;;;20.05;75.41;97156.00;5011325;28;20413;-73
2022/07/29 00:16:08;;;;;;;8.38;5.05;;;20.70;99.90;;;19.99;75.59;97151.88;5011838;28;20917;-74
2022/07/29 00:18:34;;;;;;;7.80;4.68;;;20.70;99.90;;;20.00;75.54;97149.97;5011657;28;20916;-74
2022/07/29 00:21:00;;;;;;;7.13;4.60;;;20.60;99.90;;;19.97;76.04;97142.56;5011673;28;20414;-73
2022/07/29 00:23:26;;;;;;;8.18;5.10;;;20.60;99.90;;;19.99;75.77;97140.34;5011066;28;20497;-74
2022/07/29 00:25:52;;;;;;;8.25;4.80;;;20.60;99.90;;;20.01;75.69;97141.59;5011445;28;20405;-73
2022/07/29 00:28:18;;;;;;;7.30;4.68;;;20.70;99.90;;;20.01;75.83;97144.28;5011561;28;20405;-72
2022/07/29 00:30:45;;;;;;;6.87;4.87;;;20.70;99.90;;;19.92;76.02;97148.84;5011371;28;20491;-73
2022/07/29 00:33:11;;;;;;;5.85;4.57;;;20.60;99.90;;;19.91;76.25;97143.81;5011128;28;20412;-73
2022/07/29 00:35:43;;;;;;;5.43;4.35;;;20.60;99.90;;;19.84;76.57;97138.13;5026773;28;20415;-72
2022/07/29 00:38:10;;;;;;;7.82;4.53;;;20.50;99.90;;;19.88;76.33;97139.88;5012990;28;20551;-74
2022/07/29 00:40:36;;;;;;;5.93;4.20;;;20.50;99.90;;;19.88;76.06;97144.44;5011561;28;20952;-73
2022/07/29 00:43:02;;;;;;;8.13;4.43;;;20.50;99.90;;;19.92;75.62;97143.50;5010957;28;20408;-73
2022/07/29 00:45:29;;;;;;;5.78;4.32;;;20.50;99.90;;;19.91;75.93;97130.41;5011173;28;20409;-73
2022/07/29 00:47:57;;;;;;;7.65;4.30;;;20.60;99.90;;;19.94;75.64;97135.91;5011295;28;20424;-74
2022/07/29 00:50:24;;;;;;;7.38;4.78;;;20.60;99.90;;;19.85;75.65;97128.94;5011304;28;20492;-73
2022/07/29 00:52:51;;;;;;;6.22;4.05;;;20.60;99.90;;;19.90;75.80;97134.19;5010583;28;20412;-73
2022/07/29 00:55:17;;;;;;;6.60;4.33;;;20.60;99.90;;;19.85;75.64;97128.94;5011185;28;20401;-73
2022/07/29 00:57:44;;;;;;;6.38;4.03;;;20.50;99.90;;;19.83;75.92;97134.66;5010925;28;20423;-73
2022/07/29 01:00:17;;;;;;;5.40;4.28;;;20.50;99.90;;;19.81;76.02;97122.66;5011101;28;20416;-73
2022/07/29 01:02:43;;;;;;;6.70;4.25;;;20.50;99.90;;;19.71;76.23;97124.53;5010749;28;20411;-74
2022/07/29 01:05:12;;;;;;;6.65;4.05;;;20.40;99.90;;;19.71;76.01;97113.78;5010745;28;20955;-74
2022/07/29 01:07:39;;;;;;;5.47;4.00;;;20.40;99.90;;;19.69;76.08;97115.22;5010668;28;20404;-74
2022/07/29 01:10:09;;;;;;;5.57;3.83;;;20.40;99.90;;;19.73;75.63;97108.13;5025984;28;20997;-74
2022/07/29 01:12:37;;;;;;;5.45;3.95;;;20.30;99.90;;;19.76;75.28;97106.69;5010839;28;20408;-73
2022/07/29 01:15:07;;;;;;;6.65;3.83;;;20.40;99.90;;;19.71;75.60;97113.00;5010339;28;20401;-73
2022/07/29 01:17:40;;;;;;;6.70;4.30;;;20.40;99.90;;;19.71;75.56;97110.31;5010792;28;20416;-74
2022/07/29 01:20:17;;;;;;;9.10;3.90;;;20.40;99.90;;;19.70;75.58;97108.72;5010958;28;20409;-74
2022/07/29 01:23:20;;;;;;;4.70;3.63;;;20.30;99.90;;;19.67;75.26;97107.50;5010553;28;20397;-74
2022/07/29 01:26:35;;;;;;;4.97;3.83;;;20.30;99.90;;;19.63;75.45;97114.56;5010720;28;20411;-74
2022/07/29 01:29:11;;;;;;;6.32;4.18;;;20.30;99.90;;;19.64;75.09;97108.09;4973932;28;20429;-74
2022/07/29 01:31:45;;;;;;;5.20;3.70;;;20.30;99.90;;;19.65;74.97;97104.31;5010765;28;20399;-75
2022/07/29 01:34:21;;;;;;;4.65;3.53;;;20.30;99.90;;;19.65;74.91;97108.91;5010369;28;20397;-74
2022/07/29 01:36:52;;;;;;;5.90;3.97;;;20.30;99.90;;;19.62;74.85;97118.38;5011702;28;20487;-74
2022/07/29 01:39:25;;;;;;;5.70;3.60;;;20.30;99.90;;;19.65;75.05;97111.59;5010792;28;20416;-74
2022/07/29 01:41:59;;;;;;;7.10;3.90;;;20.30;99.90;;;19.43;75.43;97107.13;5010542;28;20475;-74
2022/07/29 01:44:32;;;;;;;6.03;3.53;;;20.20;99.90;;;19.41;75.66;97108.53;5010052;28;20404;-75
2022/07/29 01:47:08;;;;;;;5.15;3.85;;;20.10;99.90;;;19.39;75.83;97114.25;5010658;28;20405;-75
2022/07/29 01:49:40;;;;;;;4.53;3.58;;;20.00;99.90;;;19.37;75.88;97103.00;5010438;28;20408;-74
2022/07/29 01:52:13;;;;;;;4.53;3.60;;;20.00;99.90;;;19.33;76.16;97104.72;5010137;28;20405;-74
2022/07/29 01:54:45;;;;;;;6.50;3.80;;;20.00;99.90;;;19.34;75.90;97109.78;5010017;28;20501;-73
2022/07/29 01:57:14;;;;;;;6.63;4.10;;;20.00;99.90;;;19.25;76.17;97108.19;5010399;28;20404;-74
2022/07/29 01:59:43;;;;;;;6.03;3.70;;;20.00;99.90;;;19.23;76.38;97107.75;5010293;28;20420;-74
2022/07/29 02:02:11;;;;;;;6.90;4.18;;;19.90;99.90;;;19.17;76.48;97106.31;5010291;28;20743;-74
2022/07/29 02:04:40;;;;;;;7.40;3.78;;;19.80;99.90;;;19.16;76.50;97105.50;5009985;28;20397;-74
2022/07/29 02:07:10;;;;;;;5.50;3.33;;;19.90;99.90;;;19.13;76.52;97100.75;5010333;28;20920;-74
2022/07/29 02:09:39;;;;;;;5.60;3.40;;;19.80;99.90;;;19.15;76.57;97095.09;5012530;28;20397;-75
2022/07/29 02:12:07;;;;;;;4.72;3.58;;;19.90;99.90;;;19.07;76.68;97098.53;5013908;28;20396;-74
2022/07/29 02:14:40;;;;;;;4.40;3.45;;;19.80;99.90;;;19.09;76.53;97088.28;5013639;28;20886;-74
2022/07/29 02:17:08;;;;;;;6.07;3.70;;;19.70;99.90;;;19.08;76.39;97092.06;5013979;28;20397;-74
2022/07/29 02:19:37;;;;;;;4.43;3.50;;;19.80;99.90;;;19.10;75.59;97089.84;5014092;28;20894;-74
2022/07/29 02:22:05;;;;;;;4.05;3.25;;;19.70;99.90;;;19.14;76.25;97082.78;5013913;28;20400;-74
2022/07/29 02:24:32;;;;;;;4.63;3.38;;;19.80;99.90;;;19.20;75.75;97078.84;5013466;28;20944;-74
2022/07/29 02:27:01;;;;;;;3.72;3.28;;;19.80;99.90;;;19.13;75.89;97081.97;5014125;28;20427;-74
2022/07/29 02:29:29;;;;;;;5.40;3.40;;;19.80;99.90;;;19.14;76.13;97086.25;5013801;28;20921;-73
2022/07/29 02:31:59;;;;;;;7.68;4.03;;;19.80;99.90;;;18.94;76.84;97084.16;5013736;28;20401;-74
2022/07/29 02:34:28;;;;;;;5.80;3.50;;;19.70;99.90;;;18.94;76.72;97087.59;5013255;28;20458;-74
2022/07/29 02:36:55;;;;;;;4.78;3.63;;;19.60;99.90;;;18.87;77.23;97084.59;5012522;28;20408;-74
2022/07/29 02:39:23;;;;;;;4.28;3.30;;;19.60;99.90;;;18.71;77.76;97082.66;5013554;28;20427;-74
2022/07/29 02:41:54;;;;;;;4.25;3.42;;;19.50;99.90;;;18.81;77.52;97091.22;5013906;28;20407;-74
2022/07/29 02:44:25;;;;;;;4.60;3.65;;;19.50;99.90;;;18.83;77.34;97090.91;5013060;28;20401;-74
2022/07/29 02:46:58;;;;;;;6.93;3.60;;;19.50;99.90;;;18.81;77.27;97088.53;5013485;28;21021;-74
2022/07/29 02:49:35;;;;;;;5.43;3.38;;;19.50;99.90;;;18.75;77.52;97086.28;5013520;28;20480;-74
2022/07/29 02:52:07;;;;;;;4.90;3.20;;;19.50;99.90;;;18.78;77.50;97088.38;5013289;28;20881;-74
2022/07/29 02:54:40;;;;;;;11.17;4.00;;;19.50;99.90;;;18.74;77.48;97093.56;5028025;28;20413;-74
2022/07/29 02:57:16;;;;;;;4.03;3.30;;;19.40;99.90;;;18.69;77.78;97091.03;5011953;28;20450;-74
2022/07/29 02:59:45;;;;;;;4.18;3.30;;;19.40;99.90;;;18.73;77.66;97085.81;5013297;28;20423;-74
2022/07/29 03:02:13;;;;;;;4.30;3.53;;;19.40;99.90;;;18.68;77.83;97085.97;5013086;28;20412;-74
2022/07/29 03:04:43;;;;;;;4.97;3.13;;;19.40;99.90;;;18.59;78.32;97090.50;5012856;28;20409;-74
2022/07/29 03:07:12;;;;;;;4.30;3.17;;;19.30;99.90;;;18.47;78.71;97102.56;5013003;28;20401;-74
2022/07/29 03:09:41;;;;;;;5.97;3.70;;;19.20;99.90;;;18.47;78.82;97097.22;5013291;28;20424;-73
2022/07/29 03:12:08;;;;;;;3.67;3.17;;;19.20;99.90;;;18.47;78.96;97105.25;5012972;28;20731;-74
2022/07/29 03:14:35;;;;;;;5.88;3.70;;;19.20;99.90;;;18.35;79.54;97101.53;5012572;28;20831;-74
2022/07/29 03:17:02;;;;;;;5.70;3.83;;;19.10;99.90;;;18.25;80.06;97099.16;5012956;28;20435;-75
2022/07/29 03:19:29;;;;;;;3.65;3.20;;;19.00;99.90;;;18.30;79.55;97102.47;5012778;28;20447;-75
2022/07/29 03:21:58;;;;;;;4.82;3.28;;;19.00;99.90;;;18.31;79.72;97098.69;5026905;28;20416;-74
2022/07/29 03:24:26;;;;;;;4.72;3.47;;;19.10;99.90;;;18.35;79.52;97101.53;5012327;28;20436;-74
2022/07/29 03:26:54;;;;;;;7.30;3.30;;;19.10;99.90;;;18.36;79.17;97103.13;5012652;28;20405;-74
2022/07/29 03:29:20;;;;;;;5.25;3.45;;;19.10;99.90;;;18.37;79.23;97107.41;5012727;28;20491;-74
2022/07/29 03:31:45;;;;;;;4.07;3.50;;;19.10;99.90;;;18.39;78.82;97106.00;5012480;28;20405;-74
2022/07/29 03:34:11;;;;;;;7.28;3.50;;;19.10;99.90;;;18.38;78.96;97103.63;5010927;28;20468;-75
2022/07/29 03:36:37;;;;;;;5.57;3.35;;;19.10;99.90;;;18.35;79.04;97101.53;5027948;28;20405;-74
2022/07/29 03:39:06;;;;;;;7.80;3.90;;;19.10;99.90;;;18.23;79.37;97096.75;5012590;28;20901;-74
2022/07/29 03:41:35;;;;;;;4.75;3.53;;;19.00;99.90;;;18.23;79.62;97101.34;5012366;28;20885;-75
2022/07/29 03:44:03;;;;;;;4.82;3.80;;;18.90;99.90;;;18.23;79.59;97109.38;5011860;28;20491;-74
2022/07/29 03:46:31;;;;;;;5.43;3.60;;;19.00;99.90;;;18.23;79.47;97110.16;5012360;28;20396;-74
2022/07/29 03:49:01;;;;;;;5.22;3.35;;;19.00;99.90;;;18.19;79.83;97112.66;5012288;28;20400;-74
2022/07/29 03:51:27;;;;;;;4.72;3.55;;;18.90;99.90;;;18.22;80.02;97113.13;5012084;28;20882;-73
2022/07/29 03:53:53;;;;;;;4.28;3.33;;;19.00;99.90;;;18.22;79.85;97111.25;5011874;28;20411;-73
2022/07/29 03:56:23;;;;;;;5.10;3.50;;;19.00;99.90;;;18.24;80.07;97108.28;5012129;28;20407;-74
2022/07/29 03:58:51;;;;;;;4.03;3.30;;;19.00;99.90;;;18.24;79.92;97111.75;5012180;28;20432;-74
2022/07/29 04:01:18;;;;;;;3.70;3.27;;;19.00;99.90;;;18.27;79.50;97107.66;5011988;28;20413;-74
2022/07/29 04:03:47;;;;;;;4.55;3.67;;;19.00;99.90;;;18.23;79.66;97112.84;5011586;28;20415;-74
2022/07/29 04:06:14;;;;;;;5.57;3.90;;;19.00;99.90;;;18.24;79.37;97116.31;5012093;28;20409;-73
2022/07/29 04:08:40;;;;;;;4.10;3.25;;;18.90;99.90;;;18.22;79.66;97111.25;5012020;28;20409;-74
2022/07/29 04:11:06;;;;;;;4.40;3.45;;;18.90;99.90;;;18.24;79.43;97106.38;5011750;28;20920;-74
2022/07/29 04:13:34;;;;;;;4.60;3.30;;;19.00;99.90;;;18.27;79.60;97107.66;5011548;28;20424;-74
2022/07/29 04:16:00;;;;;;;4.97;3.45;;;19.00;99.90;;;18.32;79.43;97105.66;5027151;28;20420;-73
2022/07/29 04:18:26;;;;;;;6.18;3.45;;;19.00;99.90;;;18.34;79.46;97113.38;5011917;28;20448;-73
2022/07/29 04:20:52;;;;;;;4.25;3.47;;;19.00;99.90;;;18.34;79.65;97116.84;5011758;28;20539;-74
2022/07/29 04:23:19;;;;;;;5.10;3.40;;;19.10;99.90;;;18.36;79.54;97117.31;5009955;28;20862;-74
2022/07/29 04:25:45;;;;;;;5.20;3.80;;;19.10;99.90;;;18.41;79.72;97114.53;5011561;28;20409;-74
2022/07/29 04:28:11;;;;;;;4.78;3.80;;;19.10;99.90;;;18.43;79.32;97117.66;5011740;28;20397;-74
2022/07/29 04:30:38;;;;;;;5.32;3.60;;;19.10;99.90;;;18.47;79.09;97115.19;5011630;28;20405;-74
2022/07/29 04:33:06;;;;;;;3.65;3.22;;;19.20;99.90;;;18.49;79.15;97116.44;5010733;28;20407;-74
2022/07/29 04:35:36;;;;;;;4.68;3.60;;;19.20;99.90;;;18.59;nan;97120.78;5012547;28;20444;-74
2022/07/29 04:38:02;;;;;;;4.28;3.17;;;19.30;99.90;;;18.69;77.49;97115.16;5011661;28;20417;-73
2022/07/29 04:40:29;;;;;;;4.47;3.10;;;19.30;99.90;;;18.73;76.99;97112.63;5011720;28;20880;-73
2022/07/29 04:42:55;;;;;;;4.60;2.85;;;19.40;99.90;;;18.76;76.81;97118.16;5011377;28;20443;-75
2022/07/29 04:45:21;;;;;;;3.40;3.00;;;19.40;99.90;;;18.83;75.98;97113.16;5011365;28;20495;-74
2022/07/29 04:47:49;;;;;;;4.75;3.20;;;19.50;99.90;;;18.79;76.04;97114.09;5011386;28;20401;-74
2022/07/29 04:50:14;;;;;;;5.78;3.00;;;19.50;99.90;;;18.75;76.23;97110.44;5011275;28;20886;-74
2022/07/29 04:52:40;;;;;;;3.10;2.67;;;19.40;99.90;;;18.72;76.50;97111.84;5011016;28;20540;-74
2022/07/29 04:55:07;;;;;;;4.97;3.10;;;19.40;99.90;;;18.70;76.33;97119.41;5011039;28;20404;-74
2022/07/29 04:57:34;;;;;;;6.32;3.00;;;19.30;99.90;;;18.63;76.22;97113.72;5010905;28;20413;-74
2022/07/29 05:00:00;;;;;;;4.57;3.03;;;19.30;99.90;;;18.54;76.59;97110.97;5011387;28;20463;-74
2022/07/29 05:02:26;;;;;;;4.85;3.15;;;19.20;99.90;;;18.59;76.79;97111.94;5011111;28;20397;-74
2022/07/29 05:04:53;;;;;;;4.90;3.05;;;19.20;99.90;;;18.67;76.33;97117.34;5010895;28;20440;-74
2022/07/29 05:07:19;;;;;;;6.50;3.00;;;19.30;99.90;;;18.71;75.91;97121.00;5010101;28;20415;-74
2022/07/29 05:09:45;;;;;;;2.70;2.50;;;19.30;99.90;;;18.80;75.80;97119.13;5010531;28;20425;-75
2022/07/29 05:12:11;;;;;;;4.57;2.70;;;19.40;99.90;;;18.85;75.55;97110.16;5009538;28;20847;-75
2022/07/29 05:14:37;;;;;;;3.42;2.75;;;19.50;99.90;;;19.01;74.95;97122.06;5010641;28;20396;-74
2022/07/29 05:17:03;;;;;;;5.35;2.95;;;19.70;99.90;;;19.17;74.26;97125.09;5012470;28;20404;-74
2022/07/29 05:19:29;;;;;;;4.10;2.58;;;19.80;99.90;;;19.27;73.99;97130.94;5021326;28;20430;-74
2022/07/29 05:21:57;;;;;;;2.72;2.42;;;19.90;99.90;;;19.42;73.16;97123.53;5010842;28;20535;-73
2022/07/29 05:24:23;;;;;;;3.72;2.83;;;20.00;99.90;;;19.49;72.70;97124.69;5019258;28;20937;-75
2022/07/29 05:26:49;;;;;;;3.13;2.50;;;20.10;99.90;;;19.53;72.56;97122.16;5020253;28;20441;-74
2022/07/29 05:29:15;;;;;;;4.03;3.05;;;20.20;99.90;;;19.55;72.78;97123.41;5010465;28;20405;-74
2022/07/29 05:31:41;;;;;;;4.15;2.50;;;20.20;99.90;;;19.60;72.45;97123.28;5016231;28;20416;-74
2022/07/29 05:34:07;;;;;;;3.67;2.55;;;20.30;99.90;;;19.68;72.50;97125.19;5017194;28;20770;-74
2022/07/29 05:36:33;;;;;;;5.20;2.90;;;20.30;99.90;;;19.76;71.97;97118.22;5019607;28;20946;-74
2022/07/29 05:39:00;;;;;;;3.67;2.60;;;20.40;99.90;;;19.81;71.79;97118.06;5009766;28;20837;-74
2022/07/29 05:41:26;;;;;;;5.22;3.00;;;20.40;99.90;;;19.90;71.48;97121.53;5008850;28;20456;-73
2022/07/29 05:43:55;;;;;;;4.90;2.78;;;20.50;99.90;;;19.85;71.55;97124.38;5008808;28;20968;-75
2022/07/29 05:46:22;;;;;;;5.88;3.08;;;20.50;99.90;;;19.91;71.28;97114.28;5013784;28;20401;-72
2022/07/29 05:48:48;;;;;;;3.92;2.65;;;20.50;99.90;;;20.13;70.49;97116.78;5012599;28;20470;-73
2022/07/29 05:51:14;;;;;;;3.70;2.95;;;20.70;99.90;;;20.18;70.51;97115.81;5013499;28;20417;-73
2022/07/29 05:53:39;;;;;;;5.68;2.92;;;20.80;99.90;;;20.18;70.72;97132.72;5018726;22;20455;-76
2022/07/29 05:56:07;;;;;;;4.80;2.70;;;20.80;99.90;;;20.30;70.41;97132.06;5003620;28;20454;-78
2022/07/29 05:58:33;;;;;;;9.23;3.00;;;20.80;99.90;;;20.36;69.89;97128.94;5004699;28;20413;-75
2022/07/29 06:01:00;;;;;;;3.58;2.42;;;21.00;99.90;;;20.44;69.51;97135.41;4998287;28;20440;-75
2022/07/29 06:03:30;;;;;;;4.37;2.80;;;21.00;99.90;;;20.47;69.85;97132.06;4992055;28;20465;-76
2022/07/29 06:05:56;;;;;;;3.80;2.80;;;21.10;99.90;;;20.57;69.84;97130.94;4986584;28;20516;-77
2022/07/29 06:08:22;;;;;;;5.45;3.40;;;21.20;99.90;;;20.49;69.48;97135.22;4990026;28;20425;-76
2022/07/29 06:10:48;;;;;;;5.70;3.17;;;21.10;99.90;;;20.66;69.01;97137.88;4990302;28;20497;-79
2022/07/29 06:13:15;;;;;;;6.20;2.78;;;21.20;99.90;;;20.87;67.90;97143.31;4984331;28;20404;-79
2022/07/29 06:15:41;;;;;;;4.57;2.73;;;21.40;99.90;;;21.03;68.20;97151.63;4988601;28;20406;-78
2022/07/29 06:18:09;;;;;;;3.78;3.05;;;21.60;99.90;;;21.23;67.11;97151.72;4988419;28;20416;-78
2022/07/29 06:20:36;;;;;;;6.20;3.10;;;21.80;99.10;;;21.38;66.56;97152.25;4988365;28;20461;-79
2022/07/29 06:23:04;;;;;;;5.18;2.85;;;21.90;98.10;;;21.48;66.50;97154.59;4993272;28;20403;-78
2022/07/29 06:25:32;;;;;;;3.75;3.05;;;22.00;97.90;;;21.66;65.14;97152.53;4993606;28;20763;-78
2022/07/29 06:27:58;;;;;;;5.55;3.20;;;22.20;96.60;;;21.82;63.79;97159.72;4989714;28;20851;-82
2022/07/29 06:30:25;;;;;;;4.43;3.10;;;22.30;94.80;;;21.96;62.81;97159.44;4989673;28;20489;-78
2022/07/29 06:32:51;;;;;;;7.35;2.97;;;22.50;93.40;;;22.00;63.33;97161.19;4993229;28;20776;-76
2022/07/29 06:35:17;;;;;;;7.95;3.10;;;22.60;93.30;;;22.04;64.02;97163.22;4993764;28;20718;-79
2022/07/29 06:37:43;;;;;;;6.53;3.30;;;22.60;93.90;;;22.02;62.85;97160.88;4988852;28;20868;-77
2022/07/29 06:42:56;;;;;;;5.22;3.00;;;22.60;93.00;;;22.02;63.35;97163.56;4984749;28;20453;-79
2022/07/29 06:45:22;;;;;;;6.30;3.20;;;22.60;92.80;;;21.79;63.32;97165.00;4986812;28;20486;-80
2022/07/29 06:47:49;;;;;;;5.00;2.97;;;22.40;92.10;;;21.91;63.40;97167.75;4984236;28;20473;-80
2022/07/29 06:50:16;;;;;;;7.65;3.20;;;22.40;92.70;;;21.81;63.91;97165.44;4990631;28;20851;-78
2022/07/29 06:52:42;;;;;;;4.35;3.10;;;22.40;92.70;;;21.85;64.02;97171.75;4985438;28;20423;-78
2022/07/29 06:55:09;;;;;;;6.95;3.33;;;22.40;93.00;;;21.96;62.89;97171.03;4989621;28;20774;-77
2022/07/29 06:57:35;;;;;;;6.72;3.72;;;22.40;92.40;;;22.00;62.49;97163.88;4989310;28;20922;-77
2022/07/29 07:00:02;;;;;;;6.38;3.10;;;22.50;91.80;;;22.00;62.35;97177.38;4989697;28;20406;-78
2022/07/29 07:02:29;;;;;;;3.60;3.05;;;22.60;91.60;;;22.13;62.21;97170.13;4993412;28;20425;-78
2022/07/29 07:04:56;;;;;;;5.13;3.03;;;22.70;91.30;;;22.26;61.57;97177.13;4990643;28;20432;-77
2022/07/29 07:07:22;;;;;;;4.43;3.08;;;22.80;90.70;;;22.35;62.09;97172.44;4988564;28;20891;-77
2022/07/29 07:09:48;;;;;;;5.40;2.80;;;22.90;91.00;;;22.45;61.36;97167.75;4989347;28;20490;-78
2022/07/29 07:12:14;;;;;;;3.58;2.90;;;23.00;90.40;;;22.52;61.69;97176.09;4992680;28;20461;-78
2022/07/29 07:14:40;;;;;;;4.03;2.70;;;23.00;90.60;;;22.63;61.95;97182.66;4992217;28;20414;-78
2022/07/29 07:17:07;;;;;;;3.35;2.58;;;23.20;91.00;;;22.70;62.25;97178.25;4993161;28;20402;-76
2022/07/29 07:19:33;;;;;;;5.70;2.95;;;23.20;91.10;;;22.73;61.88;97176.81;4993091;28;20415;-77
2022/07/29 07:22:00;;;;;;;3.40;2.90;;;23.30;90.80;;;22.83;62.19;97181.81;4992856;28;20409;-79
2022/07/29 07:24:26;;;;;;;4.75;2.92;;;23.40;91.00;;;22.92;62.21;97181.72;4991091;28;20891;-78
2022/07/29 07:26:52;;;;;;;3.97;3.00;;;23.40;91.10;;;23.00;62.44;97186.25;4992739;28;20445;-77
2022/07/29 07:29:18;;;;;;;7.30;3.50;;;23.50;91.30;;;22.99;61.28;97182.75;4992758;28;20803;-77
2022/07/29 07:31:45;;;;;;;5.20;3.30;;;23.50;90.40;;;23.09;60.47;97186.91;4992667;28;20433;-78
2022/07/29 07:34:11;;;;;;;5.63;3.43;;;23.60;89.40;;;23.16;59.53;97193.31;4992162;28;20807;-78
2022/07/29 07:36:37;;;;;;;5.07;3.23;;;23.60;87.70;;;23.22;59.86;97198.50;4992425;28;20445;-76
2022/07/29 07:39:05;;;;;;;5.00;2.93;;;23.70;87.50;;;23.29;59.86;97193.34;4992269;28;20422;-76
2022/07/29 07:41:31;;;;;;;4.23;3.10;;;23.80;87.60;;;23.31;59.18;97191.84;4992346;28;20421;-76
2022/07/29 07:43:57;;;;;;;5.37;3.17;;;23.80;85.90;;;23.35;58.99;97198.16;4991689;28;20757;-76
2022/07/29 07:46:23;;;;;;;5.00;3.27;;;23.80;85.60;;;23.41;58.96;97194.13;4991666;28;20459;-76
2022/07/29 07:48:49;;;;;;;5.30;3.15;;;23.90;85.20;;;23.53;58.84;97190.66;4990921;28;20417;-76
2022/07/29 07:51:14;;;;;;;3.97;3.03;;;24.00;85.30;;;23.68;58.36;97202.69;4992212;28;20501;-76
2022/07/29 07:53:40;;;;;;;3.95;3.15;;;24.10;84.70;;;23.70;57.91;97195.00;4992057;28;20406;-76
2022/07/29 07:56:08;;;;;;;4.70;2.95;;;24.20;83.60;;;23.74;57.57;97196.72;4992768;28;20407;-75
2022/07/29 07:58:35;;;;;;;3.40;3.10;;;24.20;83.10;;;23.83;56.85;97193.88;4992453;28;20422;-74
2022/07/29 08:01:01;;;;;;;3.92;2.90;;;24.30;81.60;;;23.86;56.83;97202.06;4992860;28;20406;-74
2022/07/29 08:03:27;;;;;;;4.60;2.80;;;24.30;80.90;;;23.90;56.48;97197.56;4992296;28;20741;-74
2022/07/29 08:05:54;;;;;;;6.40;3.75;;;24.40;80.30;;;23.93;55.60;97205.00;4992307;28;20457;-74
2022/07/29 08:08:20;;;;;;;5.80;2.90;;;24.40;79.10;;;23.95;55.12;97204.66;4992104;28;20461;-74
2022/07/29 08:10:52;;;;;;;6.40;3.33;;;24.50;78.50;;;23.93;55.49;97204.19;4992440;28;20407;-74
2022/07/29 08:13:21;;;;;;;4.38;3.38;;;24.50;78.40;;;23.92;55.29;97197.22;4992488;28;20402;-75
2022/07/29 08:15:57;;;;;;;6.40;3.33;;;24.50;77.90;;;23.90;54.78;97200.28;4992863;28;20493;-75
2022/07/29 08:18:23;;;;;;;5.15;3.20;;;24.40;76.80;;;23.92;54.71;97195.28;4992541;28;20540;-75
2022/07/29 08:20:49;;;;;;;6.00;3.20;;;24.40;76.50;;;24.15;52.01;97200.19;4992985;28;20439;-74
2022/07/29 08:23:15;;;;;;;6.20;3.57;;;24.50;73.90;;;24.08;51.83;97195.38;4988092;28;20418;-74
2022/07/29 08:25:41;;;;;;;4.70;3.10;;;24.60;72.90;;;24.06;53.17;97192.22;4983741;28;20895;-74
2022/07/29 08:28:07;;;;;;;5.18;3.03;;;24.60;74.10;;;24.09;53.57;97193.44;4991977;28;20506;-75
2022/07/29 08:30:35;;;;;;;4.18;3.20;;;24.60;74.60;;;24.19;53.55;97195.69;4991863;28;20780;-74
2022/07/29 08:33:01;;;;;;;4.45;2.90;;;24.60;74.60;;;24.25;53.22;97192.41;4991547;28;20436;-75
2022/07/29 08:35:27;;;;;;;6.30;3.57;;;24.80;74.00;;;24.31;52.99;97198.38;4991907;28;20576;-75
2022/07/29 08:37:54;;;;;;;5.10;3.08;;;24.80;73.40;;;24.36;52.39;97197.34;4991865;28;20417;-75
2022/07/29 08:40:21;;;;;;;6.33;2.90;;;24.90;72.90;;;24.41;51.89;97197.88;4990507;28;20777;-75
2022/07/29 08:42:47;;;;;;;6.38;3.47;;;24.90;71.70;;;24.47;51.25;97201.13;4990064;28;20442;-75
2022/07/29 08:45:13;;;;;;;4.85;3.10;;;25.00;71.10;;;24.45;51.31;97203.38;4991570;28;20879;-75
2022/07/29 08:47:40;;;;;;;6.20;3.40;;;24.90;71.10;;;24.45;51.34;97201.44;4991498;28;20425;-75
2022/07/29 08:50:08;;;;;;;5.82;3.40;;;24.90;71.20;;;24.47;52.03;97206.53;4991481;28;20492;-76
2022/07/29 08:52:40;;;;;;;4.72;3.33;;;24.90;71.80;;;24.52;51.91;97198.16;4991243;28;20401;-76
2022/07/29 08:55:09;;;;;;;6.90;3.30;;;25.00;71.40;;;24.55;51.93;97205.59;4991393;28;20408;-80
2022/07/29 08:57:38;;;;;;;4.00;3.10;;;25.00;71.60;;;24.64;52.10;97198.09;4991560;28;20429;-79
2022/07/29 09:00:08;;;;;;;7.50;2.87;;;25.10;71.80;;;24.74;51.73;97204.91;4991228;28;20422;-78
2022/07/29 09:02:41;;;;;;;6.75;3.55;;;25.20;71.60;;;24.82;50.86;97199.34;4991301;28;20430;-79
2022/07/29 09:05:08;;;;;;;5.85;3.42;;;25.30;70.30;;;24.91;50.82;97200.00;4990506;28;20414;-78
2022/07/29 09:07:35;;;;;;;5.73;3.40;;;25.30;70.20;;;25.02;50.67;97206.47;4991038;28;20402;-77
2022/07/29 09:10:03;;;;;;;4.18;2.95;;;25.50;70.10;;;25.19;50.71;97202.59;4990889;28;20445;-77
2022/07/29 09:12:30;;;;;;;4.68;3.10;;;25.60;70.20;;;25.32;50.76;97195.19;4988093;28;20493;-75
2022/07/29 09:14:55;;;;;;;4.35;3.15;;;25.70;70.00;;;25.52;51.01;97201.44;4990762;28;20442;-78
2022/07/29 09:17:41;;;;;;;5.40;3.72;;;25.90;70.10;;;25.66;47.85;97197.16;4991119;28;20414;-76
2022/07/29 09:20:12;;;;;;;5.00;3.40;;;26.10;66.50;;;25.74;47.00;97196.19;4991301;28;20468;-76
2022/07/29 09:22:39;;;;;;;4.30;2.97;;;26.20;65.20;;;25.89;47.64;97188.34;4991003;28;20412;-77
2022/07/29 09:25:06;;;;;;;5.20;3.10;;;26.30;65.70;;;26.04;47.83;97190.22;4990376;28;20414;-77
2022/07/29 09:27:33;;;;;;;8.85;3.88;;;26.50;65.70;;;26.10;45.87;97188.78;4982281;28;21070;-77
2022/07/29 09:30:03;;;;;;;6.30;3.70;;;26.50;63.40;;;26.15;46.13;97194.75;4982972;28;20967;-77
2022/07/29 09:32:29;;;;;;;7.50;3.63;;;26.60;63.70;;;26.25;46.20;97200.72;4989599;28;20410;-78
2022/07/29 09:35:16;;;;;;;6.88;3.40;;;26.60;63.60;;;26.51;45.95;97193.53;4990276;28;20491;-77
2022/07/29 09:37:42;;;;;;;7.53;3.77;;;26.80;63.30;;;26.56;44.46;97192.44;4991009;28;20414;-76
2022/07/29 09:40:13;;;;;;;4.25;3.20;;;27.00;61.90;;;26.76;44.99;97190.50;4990759;28;20458;-77
2022/07/29 09:42:39;;;;;;;7.97;3.45;;;27.10;61.70;;;26.92;42.15;97193.91;4989715;28;20413;-77
2022/07/29 09:45:06;;;;;;;8.90;3.78;;;27.30;59.20;;;27.03;40.67;97184.00;4990269;28;20486;-77
2022/07/29 09:47:44;;;;;;;10.13;3.45;;;27.50;57.00;;;27.18;41.37;97182.31;4989639;28;20402;-77
2022/07/29 09:50:11;;;;;;;5.83;3.40;;;27.60;57.50;;;27.15;41.23;97185.75;4988551;28;20493;-77
2022/07/29 09:52:47;;;;;;;7.93;3.58;;;27.60;57.00;;;27.16;42.18;97190.03;4981279;28;20420;-74
2022/07/29 09:55:13;;;;;;;4.50;2.90;;;27.60;58.20;;;27.26;43.11;97187.50;4986955;28;20431;-76
2022/07/29 09:57:40;;;;;;;4.70;3.40;;;27.60;58.90;;;27.32;43.41;97183.31;4983185;28;20437;-77
2022/07/29 10:00:10;;;;;;;4.97;3.17;;;27.70;59.30;;;27.33;42.90;97175.94;4982462;28;20422;-75
2022/07/29 10:02:38;;;;;;;7.95;3.05;;;27.70;59.00;;;27.19;43.39;97176.50;4976219;28;20509;-74
2022/07/29 10:05:15;;;;;;;6.55;3.30;;;27.70;58.90;;;27.16;43.30;97173.72;4989255;28;20410;-76
2022/07/29 10:07:48;;;;;;;7.30;3.50;;;27.60;59.00;;;27.03;41.58;97185.94;4985256;28;20422;-76
2022/07/29 10:10:23;;;;;;;6.78;3.35;;;27.50;57.60;;;26.89;42.83;97186.47;4986005;28;20569;-76
2022/07/29 10:12:53;;;;;;;11.52;3.22;;;27.30;58.30;;;26.77;42.27;97183.91;4981806;28;20418;-75
2022/07/29 10:15:22;;;;;;;6.07;3.22;;;27.20;58.30;;;26.64;42.66;97186.00;4981985;28;20422;-75
2022/07/29 10:17:48;;;;;;;3.75;3.03;;;27.10;58.40;;;26.56;44.15;97187.81;4984588;28;20776;-75
2022/07/29 10:20:15;;;;;;;11.82;4.13;;;27.00;59.40;;;26.28;44.11;97189.19;4984454;28;20406;-75
2022/07/29 10:22:43;;;;;;;7.03;4.00;;;26.80;59.10;;;26.23;44.59;97181.31;4988463;28;20657;-75
2022/07/29 10:25:11;;;;;;;9.48;4.15;;;26.70;60.00;;;25.99;46.05;97175.03;4989345;28;21033;-75
2022/07/29 10:27:37;;;;;;;8.95;4.38;;;26.50;61.50;;;25.81;46.98;97169.22;4989990;28;20407;-75